sensor_id;sensor_type;location;lat;lon;timestamp;temperature;humidity
65826;DHT22;52586;-43.152;172.732;2022-07-29T00:00:53;14.40;64.00
65826;DHT22;52586;-43.152;172.732;2022-07-29T00:03:24;14.50;63.90
65826;DHT22;52586;-43.152;172.732;2022-07-29T00:05:54;14.50;63.80
65826;DHT22;52586;-43.152;172.732;2022-07-29T00:08:27;14.50;63.70
65826;DHT22;52586;-43.152;172.732;2022-07-29T00:10:58;14.50;63.70
65826;DHT22;52586;-43.152;172.732;2022-07-29T00:13:28;14.50;64.00
65826;DHT22;52586;-43.152;172.732;2022-07-29T00:15:59;14.60;64.20
65826;DHT22;52586;-43.152;172.732;2022-07-29T00:18:30;14.60;64.30
65826;DHT22;52586;-43.152;172.732;2022-07-29T00:21:01;14.60;64.30
65826;DHT22;52586;-43.152;172.732;2022-07-29T00:23:33;14.60;64.30
65826;DHT22;52586;-43.152;172.732;2022-07-29T00:26:04;14.70;64.30
65826;DHT22;52586;-43.152;172.732;2022-07-29T00:28:35;14.70;64.20
65826;DHT22;52586;-43.152;172.732;2022-07-29T00:31:06;14.70;64.00
65826;DHT22;52586;-43.152;172.732;2022-07-29T00:33:37;14.70;63.90
65826;DHT22;52586;-43.152;172.732;2022-07-29T00:36:08;14.80;63.80
65826;DHT22;52586;-43.152;172.732;2022-07-29T00:38:39;14.80;63.60
65826;DHT22;52586;-43.152;172.732;2022-07-29T00:41:12;14.80;63.50
65826;DHT22;52586;-43.152;172.732;2022-07-29T00:43:43;14.80;63.60
65826;DHT22;52586;-43.152;172.732;2022-07-29T00:46:14;14.80;63.60
65826;DHT22;52586;-43.152;172.732;2022-07-29T00:48:45;14.90;63.60
65826;DHT22;52586;-43.152;172.732;2022-07-29T00:51:16;14.90;63.60
65826;DHT22;52586;-43.152;172.732;2022-07-29T00:53:48;14.90;63.70
65826;DHT22;52586;-43.152;172.732;2022-07-29T00:56:19;14.90;63.80
65826;DHT22;52586;-43.152;172.732;2022-07-29T00:58:51;14.90;63.90
65826;DHT22;52586;-43.152;172.732;2022-07-29T01:01:22;15.00;63.90
65826;DHT22;52586;-43.152;172.732;2022-07-29T01:03:53;15.00;63.90
65826;DHT22;52586;-43.152;172.732;2022-07-29T01:06:25;15.00;64.00
65826;DHT22;52586;-43.152;172.732;2022-07-29T01:08:58;15.00;63.90
65826;DHT22;52586;-43.152;172.732;2022-07-29T01:11:29;15.00;64.00
65826;DHT22;52586;-43.152;172.732;2022-07-29T01:14:00;15.00;64.00
65826;DHT22;52586;-43.152;172.732;2022-07-29T01:16:32;15.00;63.90
65826;DHT22;52586;-43.152;172.732;2022-07-29T01:19:12;15.10;63.90
65826;DHT22;52586;-43.152;172.732;2022-07-29T01:21:53;15.10;63.90
65826;DHT22;52586;-43.152;172.732;2022-07-29T01:24:42;15.10;63.70
65826;DHT22;52586;-43.152;172.732;2022-07-29T01:27:34;15.10;64.50
65826;DHT22;52586;-43.152;172.732;2022-07-29T01:30:11;15.20;63.90
65826;DHT22;52586;-43.152;172.732;2022-07-29T01:32:42;15.20;63.80
65826;DHT22;52586;-43.152;172.732;2022-07-29T01:35:19;15.20;63.70
65826;DHT22;52586;-43.152;172.732;2022-07-29T01:37:55;15.20;63.60
65826;DHT22;52586;-43.152;172.732;2022-07-29T01:40:32;15.20;63.50
65826;DHT22;52586;-43.152;172.732;2022-07-29T01:43:09;15.20;63.40
65826;DHT22;52586;-43.152;172.732;2022-07-29T01:45:46;15.20;63.10
65826;DHT22;52586;-43.152;172.732;2022-07-29T01:48:19;15.30;63.00
65826;DHT22;52586;-43.152;172.732;2022-07-29T01:50:54;15.30;62.80
65826;DHT22;52586;-43.152;172.732;2022-07-29T01:53:29;15.30;62.60
65826;DHT22;52586;-43.152;172.732;2022-07-29T01:56:03;15.30;62.50
65826;DHT22;52586;-43.152;172.732;2022-07-29T01:58:35;15.30;62.50
65826;DHT22;52586;-43.152;172.732;2022-07-29T02:01:09;15.40;62.50
65826;DHT22;52586;-43.152;172.732;2022-07-29T02:03:45;15.40;62.50
65826;DHT22;52586;-43.152;172.732;2022-07-29T02:06:17;15.40;62.50
65826;DHT22;52586;-43.152;172.732;2022-07-29T02:08:50;15.50;62.40
65826;DHT22;52586;-43.152;172.732;2022-07-29T02:11:21;15.50;62.40
65826;DHT22;52586;-43.152;172.732;2022-07-29T02:13:54;15.50;62.40
65826;DHT22;52586;-43.152;172.732;2022-07-29T02:16:30;15.50;62.30
65826;DHT22;52586;-43.152;172.732;2022-07-29T02:19:02;15.50;62.30
65826;DHT22;52586;-43.152;172.732;2022-07-29T02:21:33;15.60;62.30
65826;DHT22;52586;-43.152;172.732;2022-07-29T02:24:05;15.60;63.10
65826;DHT22;52586;-43.152;172.732;2022-07-29T02:26:38;15.60;62.30
65826;DHT22;52586;-43.152;172.732;2022-07-29T02:29:11;15.70;62.50
65826;DHT22;52586;-43.152;172.732;2022-07-29T02:31:45;15.70;62.40
65826;DHT22;52586;-43.152;172.732;2022-07-29T02:34:16;15.80;62.50
65826;DHT22;52586;-43.152;172.732;2022-07-29T02:36:48;15.70;62.40
65826;DHT22;52586;-43.152;172.732;2022-07-29T02:39:20;15.80;62.50
65826;DHT22;52586;-43.152;172.732;2022-07-29T02:41:54;15.80;62.50
65826;DHT22;52586;-43.152;172.732;2022-07-29T02:44:26;15.80;63.30
65826;DHT22;52586;-43.152;172.732;2022-07-29T02:47:04;15.90;62.60
65826;DHT22;52586;-43.152;172.732;2022-07-29T02:49:38;15.90;62.60
65826;DHT22;52586;-43.152;172.732;2022-07-29T02:52:15;15.90;62.50
65826;DHT22;52586;-43.152;172.732;2022-07-29T02:54:55;15.90;62.60
65826;DHT22;52586;-43.152;172.732;2022-07-29T02:57:32;16.00;62.60
65826;DHT22;52586;-43.152;172.732;2022-07-29T03:00:07;16.00;62.60
65826;DHT22;52586;-43.152;172.732;2022-07-29T03:02:42;16.00;62.60
65826;DHT22;52586;-43.152;172.732;2022-07-29T03:05:20;16.00;62.50
65826;DHT22;52586;-43.152;172.732;2022-07-29T03:07:56;16.00;62.50
65826;DHT22;52586;-43.152;172.732;2022-07-29T03:10:28;16.10;62.60
65826;DHT22;52586;-43.152;172.732;2022-07-29T03:12:59;16.10;62.50
65826;DHT22;52586;-43.152;172.732;2022-07-29T03:15:31;16.10;62.50
65826;DHT22;52586;-43.152;172.732;2022-07-29T03:18:04;16.10;62.40
65826;DHT22;52586;-43.152;172.732;2022-07-29T03:20:37;16.10;62.40
65826;DHT22;52586;-43.152;172.732;2022-07-29T03:23:08;16.20;62.40
65826;DHT22;52586;-43.152;172.732;2022-07-29T03:25:39;16.20;62.30
65826;DHT22;52586;-43.152;172.732;2022-07-29T03:28:10;16.20;62.40
65826;DHT22;52586;-43.152;172.732;2022-07-29T03:30:41;16.20;62.40
65826;DHT22;52586;-43.152;172.732;2022-07-29T03:33:13;16.20;62.40
65826;DHT22;52586;-43.152;172.732;2022-07-29T03:35:44;16.20;62.30
65826;DHT22;52586;-43.152;172.732;2022-07-29T03:38:15;16.30;62.30
65826;DHT22;52586;-43.152;172.732;2022-07-29T03:40:52;16.30;62.10
65826;DHT22;52586;-43.152;172.732;2022-07-29T03:43:25;16.30;61.90
65826;DHT22;52586;-43.152;172.732;2022-07-29T03:45:57;16.30;62.00
65826;DHT22;52586;-43.152;172.732;2022-07-29T03:48:32;16.30;62.10
65826;DHT22;52586;-43.152;172.732;2022-07-29T03:51:03;16.30;62.10
65826;DHT22;52586;-43.152;172.732;2022-07-29T03:53:34;16.30;62.00
65826;DHT22;52586;-43.152;172.732;2022-07-29T03:56:07;16.40;62.10
65826;DHT22;52586;-43.152;172.732;2022-07-29T03:58:40;16.40;62.20
65826;DHT22;52586;-43.152;172.732;2022-07-29T04:01:11;16.40;62.10
65826;DHT22;52586;-43.152;172.732;2022-07-29T04:03:45;16.40;62.10
65826;DHT22;52586;-43.152;172.732;2022-07-29T04:06:15;16.40;62.00
65826;DHT22;52586;-43.152;172.732;2022-07-29T04:08:46;16.50;62.00
65826;DHT22;52586;-43.152;172.732;2022-07-29T04:11:17;16.50;62.00
65826;DHT22;52586;-43.152;172.732;2022-07-29T04:13:47;16.50;62.00
65826;DHT22;52586;-43.152;172.732;2022-07-29T04:16:18;16.50;61.90
65826;DHT22;52586;-43.152;172.732;2022-07-29T04:18:51;16.50;61.80
65826;DHT22;52586;-43.152;172.732;2022-07-29T04:21:21;16.50;61.80
65826;DHT22;52586;-43.152;172.732;2022-07-29T04:23:52;16.50;61.70
65826;DHT22;52586;-43.152;172.732;2022-07-29T04:26:23;16.60;61.80
65826;DHT22;52586;-43.152;172.732;2022-07-29T04:28:53;16.60;61.70
65826;DHT22;52586;-43.152;172.732;2022-07-29T04:31:24;16.60;61.70
65826;DHT22;52586;-43.152;172.732;2022-07-29T04:33:56;16.60;61.80
65826;DHT22;52586;-43.152;172.732;2022-07-29T04:36:27;16.70;61.70
65826;DHT22;52586;-43.152;172.732;2022-07-29T04:38:58;16.70;61.50
65826;DHT22;52586;-43.152;172.732;2022-07-29T04:41:29;16.70;61.40
65826;DHT22;52586;-43.152;172.732;2022-07-29T04:43:59;16.70;61.30
65826;DHT22;52586;-43.152;172.732;2022-07-29T04:46:32;16.70;61.20
65826;DHT22;52586;-43.152;172.732;2022-07-29T04:49:05;16.80;61.20
65826;DHT22;52586;-43.152;172.732;2022-07-29T04:51:36;16.80;61.10
65826;DHT22;52586;-43.152;172.732;2022-07-29T04:54:06;16.80;61.10
65826;DHT22;52586;-43.152;172.732;2022-07-29T04:56:37;16.80;61.10
65826;DHT22;52586;-43.152;172.732;2022-07-29T04:59:08;16.80;61.10
65826;DHT22;52586;-43.152;172.732;2022-07-29T05:01:39;16.80;61.10
65826;DHT22;52586;-43.152;172.732;2022-07-29T05:04:11;16.80;61.90
65826;DHT22;52586;-43.152;172.732;2022-07-29T05:06:42;16.80;61.10
65826;DHT22;52586;-43.152;172.732;2022-07-29T05:09:13;16.80;61.30
65826;DHT22;52586;-43.152;172.732;2022-07-29T05:11:43;16.80;61.30
65826;DHT22;52586;-43.152;172.732;2022-07-29T05:14:14;16.80;61.30
65826;DHT22;52586;-43.152;172.732;2022-07-29T05:16:45;16.80;61.30
65826;DHT22;52586;-43.152;172.732;2022-07-29T05:19:20;16.70;61.30
65826;DHT22;52586;-43.152;172.732;2022-07-29T05:21:51;16.70;61.20
65826;DHT22;52586;-43.152;172.732;2022-07-29T05:24:21;16.70;61.30
65826;DHT22;52586;-43.152;172.732;2022-07-29T05:26:52;16.70;61.20
65826;DHT22;52586;-43.152;172.732;2022-07-29T05:29:23;16.70;61.30
65826;DHT22;52586;-43.152;172.732;2022-07-29T05:31:53;16.60;61.20
65826;DHT22;52586;-43.152;172.732;2022-07-29T05:34:26;16.60;61.30
65826;DHT22;52586;-43.152;172.732;2022-07-29T05:36:57;16.60;61.30
65826;DHT22;52586;-43.152;172.732;2022-07-29T05:39:27;16.60;61.40
65826;DHT22;52586;-43.152;172.732;2022-07-29T05:41:58;16.60;61.40
65826;DHT22;52586;-43.152;172.732;2022-07-29T05:44:29;16.60;61.40
65826;DHT22;52586;-43.152;172.732;2022-07-29T05:47:00;16.50;61.30
65826;DHT22;52586;-43.152;172.732;2022-07-29T05:49:32;16.50;61.30
65826;DHT22;52586;-43.152;172.732;2022-07-29T05:52:03;16.50;61.40
65826;DHT22;52586;-43.152;172.732;2022-07-29T05:54:34;16.50;61.40
65826;DHT22;52586;-43.152;172.732;2022-07-29T05:57:05;16.50;61.50
65826;DHT22;52586;-43.152;172.732;2022-07-29T05:59:37;16.40;61.40
65826;DHT22;52586;-43.152;172.732;2022-07-29T06:02:08;16.40;61.50
65826;DHT22;52586;-43.152;172.732;2022-07-29T06:04:40;16.40;61.50
65826;DHT22;52586;-43.152;172.732;2022-07-29T06:07:11;16.30;62.30
65826;DHT22;52586;-43.152;172.732;2022-07-29T06:09:42;16.40;61.60
65826;DHT22;52586;-43.152;172.732;2022-07-29T06:12:12;16.30;61.50
65826;DHT22;52586;-43.152;172.732;2022-07-29T06:14:43;16.30;62.40
65826;DHT22;52586;-43.152;172.732;2022-07-29T06:17:14;16.30;61.60
65826;DHT22;52586;-43.152;172.732;2022-07-29T06:19:47;16.20;61.60
65826;DHT22;52586;-43.152;172.732;2022-07-29T06:22:18;16.20;61.60
65826;DHT22;52586;-43.152;172.732;2022-07-29T06:24:49;16.20;61.50
65826;DHT22;52586;-43.152;172.732;2022-07-29T06:27:20;16.20;61.60
65826;DHT22;52586;-43.152;172.732;2022-07-29T06:29:51;16.20;61.60
65826;DHT22;52586;-43.152;172.732;2022-07-29T06:32:21;16.20;61.60
65826;DHT22;52586;-43.152;172.732;2022-07-29T06:34:54;16.20;61.60
65826;DHT22;52586;-43.152;172.732;2022-07-29T06:37:25;16.10;61.60
65826;DHT22;52586;-43.152;172.732;2022-07-29T06:39:55;16.10;61.60
65826;DHT22;52586;-43.152;172.732;2022-07-29T06:42:42;16.10;61.70
65826;DHT22;52586;-43.152;172.732;2022-07-29T06:45:13;16.00;61.70
65826;DHT22;52586;-43.152;172.732;2022-07-29T06:47:44;16.00;61.60
65826;DHT22;52586;-43.152;172.732;2022-07-29T06:50:16;16.00;61.70
65826;DHT22;52586;-43.152;172.732;2022-07-29T06:52:47;16.00;61.70
65826;DHT22;52586;-43.152;172.732;2022-07-29T06:55:18;15.90;61.70
65826;DHT22;52586;-43.152;172.732;2022-07-29T06:57:49;16.00;61.80
65826;DHT22;52586;-43.152;172.732;2022-07-29T07:00:19;15.90;61.70
65826;DHT22;52586;-43.152;172.732;2022-07-29T07:02:50;15.90;61.70
65826;DHT22;52586;-43.152;172.732;2022-07-29T07:05:23;15.90;61.70
65826;DHT22;52586;-43.152;172.732;2022-07-29T07:07:53;15.80;61.70
65826;DHT22;52586;-43.152;172.732;2022-07-29T07:10:24;15.80;61.70
65826;DHT22;52586;-43.152;172.732;2022-07-29T07:12:55;15.80;61.80
65826;DHT22;52586;-43.152;172.732;2022-07-29T07:15:25;15.80;61.70
65826;DHT22;52586;-43.152;172.732;2022-07-29T07:17:56;15.80;61.80
65826;DHT22;52586;-43.152;172.732;2022-07-29T07:20:29;15.80;61.90
65826;DHT22;52586;-43.152;172.732;2022-07-29T07:23:00;15.80;61.90
65826;DHT22;52586;-43.152;172.732;2022-07-29T07:25:30;15.80;61.80
65826;DHT22;52586;-43.152;172.732;2022-07-29T07:28:01;15.80;61.90
65826;DHT22;52586;-43.152;172.732;2022-07-29T07:30:32;15.80;61.90
65826;DHT22;52586;-43.152;172.732;2022-07-29T07:33:03;15.70;61.80
65826;DHT22;52586;-43.152;172.732;2022-07-29T07:35:35;15.70;61.90
65826;DHT22;52586;-43.152;172.732;2022-07-29T07:38:06;15.70;61.90
65826;DHT22;52586;-43.152;172.732;2022-07-29T07:40:37;15.70;61.90
65826;DHT22;52586;-43.152;172.732;2022-07-29T07:43:08;15.60;61.90
65826;DHT22;52586;-43.152;172.732;2022-07-29T07:45:38;15.70;62.00
65826;DHT22;52586;-43.152;172.732;2022-07-29T07:48:09;15.60;61.90
65826;DHT22;52586;-43.152;172.732;2022-07-29T07:50:42;15.60;62.00
65826;DHT22;52586;-43.152;172.732;2022-07-29T07:53:13;15.60;62.00
65826;DHT22;52586;-43.152;172.732;2022-07-29T07:55:44;15.60;62.00
65826;DHT22;52586;-43.152;172.732;2022-07-29T07:58:14;15.60;62.00
65826;DHT22;52586;-43.152;172.732;2022-07-29T08:00:45;15.60;62.00
65826;DHT22;52586;-43.152;172.732;2022-07-29T08:03:16;15.60;62.00
65826;DHT22;52586;-43.152;172.732;2022-07-29T08:05:48;15.60;62.10
65826;DHT22;52586;-43.152;172.732;2022-07-29T08:08:21;15.50;62.00
65826;DHT22;52586;-43.152;172.732;2022-07-29T08:10:52;15.50;62.00
65826;DHT22;52586;-43.152;172.732;2022-07-29T08:13:24;15.50;62.10
65826;DHT22;52586;-43.152;172.732;2022-07-29T08:15:58;15.50;62.10
65826;DHT22;52586;-43.152;172.732;2022-07-29T08:18:30;15.50;62.10
65826;DHT22;52586;-43.152;172.732;2022-07-29T08:21:03;15.50;62.10
65826;DHT22;52586;-43.152;172.732;2022-07-29T08:23:33;15.50;62.20
65826;DHT22;52586;-43.152;172.732;2022-07-29T08:26:06;15.40;62.10
65826;DHT22;52586;-43.152;172.732;2022-07-29T08:28:38;15.40;62.10
65826;DHT22;52586;-43.152;172.732;2022-07-29T08:31:09;15.40;62.10
65826;DHT22;52586;-43.152;172.732;2022-07-29T08:33:40;15.40;62.10
65826;DHT22;52586;-43.152;172.732;2022-07-29T08:36:14;15.40;62.10
65826;DHT22;52586;-43.152;172.732;2022-07-29T08:38:44;15.40;62.10
65826;DHT22;52586;-43.152;172.732;2022-07-29T08:41:17;15.30;62.10
65826;DHT22;52586;-43.152;172.732;2022-07-29T08:43:49;15.30;62.20
65826;DHT22;52586;-43.152;172.732;2022-07-29T08:46:20;15.30;62.20
65826;DHT22;52586;-43.152;172.732;2022-07-29T08:48:51;15.30;62.20
65826;DHT22;52586;-43.152;172.732;2022-07-29T08:51:26;15.30;62.20
65826;DHT22;52586;-43.152;172.732;2022-07-29T08:53:57;15.30;62.20
65826;DHT22;52586;-43.152;172.732;2022-07-29T08:56:28;15.30;62.20
65826;DHT22;52586;-43.152;172.732;2022-07-29T08:59:02;15.20;62.10
65826;DHT22;52586;-43.152;172.732;2022-07-29T09:01:33;15.30;62.20
65826;DHT22;52586;-43.152;172.732;2022-07-29T09:04:10;15.20;62.10
65826;DHT22;52586;-43.152;172.732;2022-07-29T09:06:44;15.20;62.10
65826;DHT22;52586;-43.152;172.732;2022-07-29T09:09:15;15.20;62.10
65826;DHT22;52586;-43.152;172.732;2022-07-29T09:11:46;15.10;62.10
65826;DHT22;52586;-43.152;172.732;2022-07-29T09:14:17;15.10;62.20
65826;DHT22;52586;-43.152;172.732;2022-07-29T09:16:50;15.10;62.20
65826;DHT22;52586;-43.152;172.732;2022-07-29T09:19:25;15.10;62.20
65826;DHT22;52586;-43.152;172.732;2022-07-29T09:21:58;15.10;62.30
65826;DHT22;52586;-43.152;172.732;2022-07-29T09:24:39;15.10;62.20
65826;DHT22;52586;-43.152;172.732;2022-07-29T09:27:19;15.00;62.20
65826;DHT22;52586;-43.152;172.732;2022-07-29T09:30:00;15.10;62.20
65826;DHT22;52586;-43.152;172.732;2022-07-29T09:32:31;15.00;62.10
65826;DHT22;52586;-43.152;172.732;2022-07-29T09:35:20;15.00;62.20
65826;DHT22;52586;-43.152;172.732;2022-07-29T09:37:54;14.90;62.20
65826;DHT22;52586;-43.152;172.732;2022-07-29T09:40:27;15.00;62.90
65826;DHT22;52586;-43.152;172.732;2022-07-29T09:42:58;15.10;63.30
65826;DHT22;52586;-43.152;172.732;2022-07-29T09:45:39;15.10;63.20
65826;DHT22;52586;-43.152;172.732;2022-07-29T09:48:17;15.10;63.10
65826;DHT22;52586;-43.152;172.732;2022-07-29T09:50:49;15.00;63.00
65826;DHT22;52586;-43.152;172.732;2022-07-29T09:53:36;15.00;63.00
65826;DHT22;52586;-43.152;172.732;2022-07-29T09:56:07;15.00;63.10
65826;DHT22;52586;-43.152;172.732;2022-07-29T09:58:39;15.00;62.90
65826;DHT22;52586;-43.152;172.732;2022-07-29T10:01:09;15.00;62.90
65826;DHT22;52586;-43.152;172.732;2022-07-29T10:03:52;15.00;62.90
65826;DHT22;52586;-43.152;172.732;2022-07-29T10:06:23;14.90;62.80
65826;DHT22;52586;-43.152;172.732;2022-07-29T10:09:02;14.90;62.80
65826;DHT22;52586;-43.152;172.732;2022-07-29T10:11:36;14.90;62.80
65826;DHT22;52586;-43.152;172.732;2022-07-29T10:14:07;14.90;62.80
65826;DHT22;52586;-43.152;172.732;2022-07-29T10:16:38;14.90;62.80
65826;DHT22;52586;-43.152;172.732;2022-07-29T10:19:09;14.80;62.80
65826;DHT22;52586;-43.152;172.732;2022-07-29T10:21:40;14.80;62.80
65826;DHT22;52586;-43.152;172.732;2022-07-29T10:24:14;14.80;62.80
65826;DHT22;52586;-43.152;172.732;2022-07-29T10:26:45;14.80;62.90
65826;DHT22;52586;-43.152;172.732;2022-07-29T10:29:16;14.80;62.80
65826;DHT22;52586;-43.152;172.732;2022-07-29T10:31:53;14.70;62.80
65826;DHT22;52586;-43.152;172.732;2022-07-29T10:34:32;14.70;62.80
65826;DHT22;52586;-43.152;172.732;2022-07-29T10:37:12;14.70;62.70
65826;DHT22;52586;-43.152;172.732;2022-07-29T10:39:55;14.70;62.70
65826;DHT22;52586;-43.152;172.732;2022-07-29T10:42:30;14.70;62.60
65826;DHT22;52586;-43.152;172.732;2022-07-29T10:45:02;14.70;62.70
65826;DHT22;52586;-43.152;172.732;2022-07-29T10:47:33;14.60;62.60
65826;DHT22;52586;-43.152;172.732;2022-07-29T10:50:05;14.60;62.70
65826;DHT22;52586;-43.152;172.732;2022-07-29T10:52:55;14.60;62.70
65826;DHT22;52586;-43.152;172.732;2022-07-29T10:55:34;14.60;62.70
65826;DHT22;52586;-43.152;172.732;2022-07-29T10:58:16;14.60;62.70
65826;DHT22;52586;-43.152;172.732;2022-07-29T11:00:48;14.50;62.70
65826;DHT22;52586;-43.152;172.732;2022-07-29T11:03:45;14.50;62.70
65826;DHT22;52586;-43.152;172.732;2022-07-29T11:06:18;14.50;62.70
65826;DHT22;52586;-43.152;172.732;2022-07-29T11:09:18;14.50;62.60
65826;DHT22;52586;-43.152;172.732;2022-07-29T11:11:51;14.50;62.60
65826;DHT22;52586;-43.152;172.732;2022-07-29T11:14:58;14.50;62.50
65826;DHT22;52586;-43.152;172.732;2022-07-29T11:17:30;14.50;62.60
65826;DHT22;52586;-43.152;172.732;2022-07-29T11:20:37;14.40;62.50
65826;DHT22;52586;-43.152;172.732;2022-07-29T11:23:22;14.40;62.50
65826;DHT22;52586;-43.152;172.732;2022-07-29T11:26:17;14.40;63.30
65826;DHT22;52586;-43.152;172.732;2022-07-29T11:29:01;14.30;62.50
65826;DHT22;52586;-43.152;172.732;2022-07-29T11:31:37;14.30;62.50
65826;DHT22;52586;-43.152;172.732;2022-07-29T11:34:22;14.30;62.60
65826;DHT22;52586;-43.152;172.732;2022-07-29T11:37:15;14.30;62.60
65826;DHT22;52586;-43.152;172.732;2022-07-29T11:39:47;14.30;62.50
65826;DHT22;52586;-43.152;172.732;2022-07-29T11:42:38;14.30;62.50
65826;DHT22;52586;-43.152;172.732;2022-07-29T11:45:12;14.20;62.40
65826;DHT22;52586;-43.152;172.732;2022-07-29T11:47:49;14.20;62.40
65826;DHT22;52586;-43.152;172.732;2022-07-29T11:50:33;14.20;62.40
65826;DHT22;52586;-43.152;172.732;2022-07-29T11:53:10;14.20;62.50
65826;DHT22;52586;-43.152;172.732;2022-07-29T11:55:41;14.20;63.30
65826;DHT22;52586;-43.152;172.732;2022-07-29T11:58:12;14.20;62.60
65826;DHT22;52586;-43.152;172.732;2022-07-29T12:00:47;14.10;62.50
65826;DHT22;52586;-43.152;172.732;2022-07-29T12:03:25;14.10;62.60
65826;DHT22;52586;-43.152;172.732;2022-07-29T12:05:55;14.10;62.60
65826;DHT22;52586;-43.152;172.732;2022-07-29T12:08:27;14.10;62.60
65826;DHT22;52586;-43.152;172.732;2022-07-29T12:10:58;14.10;62.70
65826;DHT22;52586;-43.152;172.732;2022-07-29T12:13:39;14.10;62.60
65826;DHT22;52586;-43.152;172.732;2022-07-29T12:16:11;14.10;62.60
65826;DHT22;52586;-43.152;172.732;2022-07-29T12:18:43;14.10;62.60
65826;DHT22;52586;-43.152;172.732;2022-07-29T12:21:24;14.10;62.50
65826;DHT22;52586;-43.152;172.732;2022-07-29T12:23:56;14.00;62.40
65826;DHT22;52586;-43.152;172.732;2022-07-29T12:26:26;14.10;62.50
65826;DHT22;52586;-43.152;172.732;2022-07-29T12:28:57;14.00;62.50
65826;DHT22;52586;-43.152;172.732;2022-07-29T12:31:30;14.00;62.50
65826;DHT22;52586;-43.152;172.732;2022-07-29T12:34:01;14.00;62.50
65826;DHT22;52586;-43.152;172.732;2022-07-29T12:36:32;14.00;62.50
65826;DHT22;52586;-43.152;172.732;2022-07-29T12:39:02;14.00;62.50
65826;DHT22;52586;-43.152;172.732;2022-07-29T12:41:34;13.90;62.50
65826;DHT22;52586;-43.152;172.732;2022-07-29T12:44:05;14.00;62.50
65826;DHT22;52586;-43.152;172.732;2022-07-29T12:46:37;13.90;62.50
65826;DHT22;52586;-43.152;172.732;2022-07-29T12:49:08;13.90;62.50
65826;DHT22;52586;-43.152;172.732;2022-07-29T12:51:40;13.90;62.40
65826;DHT22;52586;-43.152;172.732;2022-07-29T12:54:12;13.90;62.40
65826;DHT22;52586;-43.152;172.732;2022-07-29T12:56:44;13.90;62.40
65826;DHT22;52586;-43.152;172.732;2022-07-29T12:59:22;13.90;62.30
65826;DHT22;52586;-43.152;172.732;2022-07-29T13:01:54;13.90;62.30
65826;DHT22;52586;-43.152;172.732;2022-07-29T13:04:28;13.90;62.40
65826;DHT22;52586;-43.152;172.732;2022-07-29T13:07:00;13.90;62.40
65826;DHT22;52586;-43.152;172.732;2022-07-29T13:09:38;13.90;62.40
65826;DHT22;52586;-43.152;172.732;2022-07-29T13:12:09;13.80;62.40
65826;DHT22;52586;-43.152;172.732;2022-07-29T13:14:41;13.80;62.40
65826;DHT22;52586;-43.152;172.732;2022-07-29T13:17:15;13.80;62.40
65826;DHT22;52586;-43.152;172.732;2022-07-29T13:19:47;13.80;62.40
65826;DHT22;52586;-43.152;172.732;2022-07-29T13:22:21;13.80;62.30
65826;DHT22;52586;-43.152;172.732;2022-07-29T13:24:52;13.80;62.30
65826;DHT22;52586;-43.152;172.732;2022-07-29T13:27:24;13.80;62.30
65826;DHT22;52586;-43.152;172.732;2022-07-29T13:29:56;13.80;62.20
65826;DHT22;52586;-43.152;172.732;2022-07-29T13:32:30;13.80;62.20
65826;DHT22;52586;-43.152;172.732;2022-07-29T13:35:04;13.80;62.20
65826;DHT22;52586;-43.152;172.732;2022-07-29T13:37:35;13.80;62.20
65826;DHT22;52586;-43.152;172.732;2022-07-29T13:40:08;13.80;62.20
65826;DHT22;52586;-43.152;172.732;2022-07-29T13:42:39;13.70;62.20
65826;DHT22;52586;-43.152;172.732;2022-07-29T13:45:11;13.70;62.30
65826;DHT22;52586;-43.152;172.732;2022-07-29T13:47:43;13.70;62.30
65826;DHT22;52586;-43.152;172.732;2022-07-29T13:50:14;13.70;62.30
65826;DHT22;52586;-43.152;172.732;2022-07-29T13:52:45;13.60;62.20
65826;DHT22;52586;-43.152;172.732;2022-07-29T13:55:16;13.70;62.20
65826;DHT22;52586;-43.152;172.732;2022-07-29T13:57:47;13.60;62.20
65826;DHT22;52586;-43.152;172.732;2022-07-29T14:00:18;13.60;62.10
65826;DHT22;52586;-43.152;172.732;2022-07-29T14:02:50;13.60;62.10
65826;DHT22;52586;-43.152;172.732;2022-07-29T14:05:21;13.70;62.10
65826;DHT22;52586;-43.152;172.732;2022-07-29T14:07:52;13.60;62.10
65826;DHT22;52586;-43.152;172.732;2022-07-29T14:10:22;13.60;62.10
65826;DHT22;52586;-43.152;172.732;2022-07-29T14:12:53;13.60;62.10
65826;DHT22;52586;-43.152;172.732;2022-07-29T14:15:24;13.60;62.10
65826;DHT22;52586;-43.152;172.732;2022-07-29T14:17:56;13.60;62.20
65826;DHT22;52586;-43.152;172.732;2022-07-29T14:20:27;13.60;62.20
65826;DHT22;52586;-43.152;172.732;2022-07-29T14:22:58;13.60;62.20
65826;DHT22;52586;-43.152;172.732;2022-07-29T14:25:29;13.50;62.00
65826;DHT22;52586;-43.152;172.732;2022-07-29T14:27:59;13.50;62.30
65826;DHT22;52586;-43.152;172.732;2022-07-29T14:30:30;13.50;62.00
65826;DHT22;52586;-43.152;172.732;2022-07-29T14:33:02;13.50;62.00
65826;DHT22;52586;-43.152;172.732;2022-07-29T14:35:33;13.50;61.90
65826;DHT22;52586;-43.152;172.732;2022-07-29T14:38:04;13.50;61.90
65826;DHT22;52586;-43.152;172.732;2022-07-29T14:40:35;13.50;61.90
65826;DHT22;52586;-43.152;172.732;2022-07-29T14:43:06;13.40;61.80
65826;DHT22;52586;-43.152;172.732;2022-07-29T14:45:36;13.50;61.90
65826;DHT22;52586;-43.152;172.732;2022-07-29T14:48:09;13.50;62.00
65826;DHT22;52586;-43.152;172.732;2022-07-29T14:50:41;13.50;62.00
65826;DHT22;52586;-43.152;172.732;2022-07-29T14:53:11;13.40;61.90
65826;DHT22;52586;-43.152;172.732;2022-07-29T14:55:43;13.40;62.00
65826;DHT22;52586;-43.152;172.732;2022-07-29T14:58:14;13.40;61.90
65826;DHT22;52586;-43.152;172.732;2022-07-29T15:00:44;13.40;61.90
65826;DHT22;52586;-43.152;172.732;2022-07-29T15:03:17;13.40;61.80
65826;DHT22;52586;-43.152;172.732;2022-07-29T15:05:48;13.40;61.90
65826;DHT22;52586;-43.152;172.732;2022-07-29T15:08:19;13.30;61.80
65826;DHT22;52586;-43.152;172.732;2022-07-29T15:10:49;13.30;61.70
65826;DHT22;52586;-43.152;172.732;2022-07-29T15:13:20;13.40;61.80
65826;DHT22;52586;-43.152;172.732;2022-07-29T15:15:51;13.30;61.80
65826;DHT22;52586;-43.152;172.732;2022-07-29T15:18:23;13.30;61.70
65826;DHT22;52586;-43.152;172.732;2022-07-29T15:20:54;13.30;61.80
65826;DHT22;52586;-43.152;172.732;2022-07-29T15:23:25;13.30;61.80